Time;durP1;ratioP1;P1;durP2;ratioP2;P2;SDS_P1;SDS_P2;PMS_P1;PMS_P2;Temp;Humidity;BMP_temperature;BMP_pressure;BME280_temperature;BME280_humidity;BME280_pressure;Samples;Min_cycle;Max_cycle;Signal;HPM_P1;HPM_P2
2021/03/31 00:01:03;;;;;;;43.92;20.72;;;;;;;9.09;66.70;101722.44;1756230;81;21592;-75
2021/03/31 00:03:29;;;;;;;51.18;21.17;;;;;;;8.99;66.72;101715.72;1756208;80;21167;-75
2021/03/31 00:05:56;;;;;;;63.90;26.93;;;;;;;8.93;66.76;101718.05;1756466;81;21206;-75
2021/03/31 00:08:22;;;;;;;59.27;24.27;;;;;;;8.85;66.82;101712.51;1756620;81;21192;-75
2021/03/31 00:10:51;;;;;;;54.70;22.48;;;;;;;8.89;66.87;101711.28;1756397;81;21156;-75
2021/03/31 00:13:18;;;;;;;36.33;15.13;;;;;;;8.90;66.92;101706.34;1756414;81;21176;-75
2021/03/31 00:15:44;;;;;;;57.00;19.60;;;;;;;8.91;66.97;101707.52;1756466;81;21171;-75
2021/03/31 00:18:12;;;;;;;41.58;17.82;;;;;;;8.88;67.01;101706.92;1756536;81;21797;-75
2021/03/31 00:20:39;;;;;;;44.73;23.73;;;;;;;8.86;67.11;101707.55;1756373;81;21183;-75
2021/03/31 00:23:09;;;;;;;39.27;19.42;;;;;;;8.82;67.19;101710.95;1756448;81;21151;-75
2021/03/31 00:25:36;;;;;;;37.28;19.35;;;;;;;8.82;67.25;101699.47;1756620;81;21176;-75
2021/03/31 00:28:03;;;;;;;33.58;15.48;;;;;;;8.78;67.30;101694.03;1755369;81;21182;-75
2021/03/31 00:30:29;;;;;;;36.90;19.45;;;;;;;8.76;67.34;101686.17;1756504;81;21354;-75
2021/03/31 00:32:56;;;;;;;31.65;17.12;;;;;;;8.78;67.36;101686.05;1756362;81;21275;-75
2021/03/31 00:35:22;;;;;;;28.27;15.13;;;;;;;8.71;67.39;101692.38;1756318;81;21170;-75
2021/03/31 00:37:48;;;;;;;30.52;15.30;;;;;;;8.65;67.43;101687.56;1756326;81;21618;-75
2021/03/31 00:40:18;;;;;;;28.27;13.55;;;;;;;8.59;67.47;101687.19;1756551;81;21159;-75
2021/03/31 00:42:45;;;;;;;35.90;15.05;;;;;;;8.51;67.50;101680.69;1756428;81;21265;-75
2021/03/31 00:45:12;;;;;;;29.48;13.65;;;;;;;8.45;67.55;101686.52;1756330;81;21184;-75
2021/03/31 00:47:39;;;;;;;34.92;16.93;;;;;;;8.41;67.59;101682.41;1756393;81;21608;-75
2021/03/31 00:50:08;;;;;;;47.08;23.20;;;;;;;8.38;67.63;101687.98;1756138;81;21573;-75
2021/03/31 00:52:34;;;;;;;45.00;20.75;;;;;;;8.37;67.68;101680.15;1756713;81;21171;-75
2021/03/31 00:55:01;;;;;;;26.77;13.50;;;;;;;8.35;67.70;101682.07;1722614;81;21975;-75
2021/03/31 00:57:27;;;;;;;31.25;14.15;;;;;;;8.30;67.75;101675.78;1756213;81;21168;-75
2021/03/31 00:59:53;;;;;;;31.73;14.30;;;;;;;8.26;67.80;101679.66;1756454;81;21655;-75
2021/03/31 01:02:19;;;;;;;26.50;13.03;;;;;;;8.22;67.92;101675.55;1756338;81;21175;-75
2021/03/31 01:04:46;;;;;;;33.15;16.00;;;;;;;8.23;68.02;101677.25;1756414;81;21199;-75
2021/03/31 01:07:12;;;;;;;38.88;18.23;;;;;;;8.25;68.11;101671.31;1756361;81;21690;-75
2021/03/31 01:09:38;;;;;;;36.10;17.10;;;;;;;8.24;68.18;101669.61;1756349;81;21199;-75
2021/03/31 01:12:28;;;;;;;38.65;18.37;;;;;;;8.27;68.26;101673.34;1755761;81;21183;-75
2021/03/31 01:15:30;;;;;;;43.70;24.92;;;;;;;8.28;68.29;101669.77;1756346;81;21163;-75
2021/03/31 01:18:37;;;;;;;28.83;17.32;;;;;;;8.21;68.33;101667.20;1756386;81;21179;-75
2021/03/31 01:21:49;;;;;;;30.70;19.55;;;;;;;8.14;68.40;101660.70;1756456;81;21176;-74
2021/03/31 01:25:00;;;;;;;37.03;16.15;;;;;;;8.04;68.46;101662.41;1756066;81;21196;-74
2021/03/31 01:27:48;;;;;;;39.35;15.95;;;;;;;7.93;68.53;101655.30;1756486;81;21187;-75
2021/03/31 01:30:28;;;;;;;42.93;17.90;;;;;;;7.88;68.63;101656.64;1756491;81;21215;-75
2021/03/31 01:33:35;;;;;;;41.63;16.67;;;;;;;7.84;68.68;101652.53;1756273;81;21175;-76
2021/03/31 01:36:01;;;;;;;69.85;27.48;;;;;;;7.81;68.74;101658.09;1756228;81;21249;-76
2021/03/31 01:38:28;;;;;;;52.38;21.55;;;;;;;7.77;68.79;101651.33;1756132;81;21199;-76
2021/03/31 01:40:55;;;;;;;43.48;18.45;;;;;;;7.75;68.84;101654.56;1756386;81;21172;-76
2021/03/31 01:43:23;;;;;;;46.35;21.23;;;;;;;7.67;68.90;101647.71;1756417;81;21160;-75
2021/03/31 01:45:55;;;;;;;29.25;14.43;;;;;;;7.60;68.98;101643.84;1755878;81;21164;-75
2021/03/31 01:48:26;;;;;;;33.92;16.07;;;;;;;7.56;69.10;101644.57;1756272;81;21208;-75
2021/03/31 01:51:06;;;;;;;33.90;17.10;;;;;;;7.56;69.21;101643.72;1756320;81;21656;-75
2021/03/31 01:53:33;;;;;;;45.73;23.77;;;;;;;7.58;69.31;101645.77;1722403;81;21186;-75
2021/03/31 01:55:59;;;;;;;36.38;16.35;;;;;;;7.61;69.39;101641.05;1756413;81;21144;-75
2021/03/31 01:58:26;;;;;;;54.93;17.57;;;;;;;7.67;69.45;101638.42;1756011;81;21179;-75
2021/03/31 02:00:52;;;;;;;38.48;15.58;;;;;;;7.68;69.47;101644.06;1756500;81;22453;-75
2021/03/31 02:03:19;;;;;;;32.00;16.77;;;;;;;7.65;69.52;101641.66;1756208;81;21568;-75
2021/03/31 02:05:45;;;;;;;31.23;14.63;;;;;;;7.64;69.58;101642.62;1756324;81;21199;-75
2021/03/31 02:08:12;;;;;;;29.92;15.25;;;;;;;7.63;69.58;101646.26;1756388;81;21172;-75
2021/03/31 02:10:39;;;;;;;28.73;15.50;;;;;;;7.58;69.63;101641.78;1756504;81;21176;-75
2021/03/31 02:13:05;;;;;;;22.37;13.70;;;;;;;7.54;69.66;101646.48;1756211;81;21377;-75
2021/03/31 02:15:31;;;;;;;33.78;17.12;;;;;;;7.50;69.71;101650.33;1756347;81;21679;-75
2021/03/31 02:17:58;;;;;;;34.48;15.25;;;;;;;7.46;69.72;101648.88;1756643;81;21187;-75
2021/03/31 02:20:24;;;;;;;41.25;16.65;;;;;;;7.41;69.77;101653.72;1756227;81;21151;-75
2021/03/31 02:22:51;;;;;;;42.50;20.75;;;;;;;7.31;69.82;101640.80;1756405;81;21229;-75
2021/03/31 02:25:18;;;;;;;43.90;22.15;;;;;;;7.27;69.89;101642.84;1756295;81;21379;-75
2021/03/31 02:27:45;;;;;;;42.85;18.62;;;;;;;7.23;69.94;101637.88;1756320;81;21580;-75
2021/03/31 02:30:14;;;;;;;33.45;17.35;;;;;;;7.21;70.03;101647.30;1722230;81;21472;-75
2021/03/31 02:32:42;;;;;;;36.70;19.90;;;;;;;7.21;70.10;101647.78;1756478;81;21601;-75
2021/03/31 02:35:08;;;;;;;40.15;19.73;;;;;;;7.23;70.18;101648.02;1756519;81;21175;-75
2021/03/31 02:37:38;;;;;;;31.90;16.35;;;;;;;7.24;70.24;101649.72;1756320;81;21286;-75
2021/03/31 02:40:08;;;;;;;32.08;16.87;;;;;;;7.23;70.30;101654.66;1756551;81;21703;-75
2021/03/31 02:42:34;;;;;;;34.53;17.80;;;;;;;7.23;70.36;101650.67;1663943;84;21179;-75
2021/03/31 02:45:01;;;;;;;32.03;16.75;;;;;;;7.21;70.45;101653.94;1748419;82;21508;-75
2021/03/31 02:47:30;;;;;;;33.23;16.32;;;;;;;7.21;70.48;101653.94;1748339;82;21144;-75
2021/03/31 02:49:59;;;;;;;31.97;15.25;;;;;;;7.18;70.53;101646.70;1716619;82;22188;-75
2021/03/31 02:52:26;;;;;;;32.13;16.05;;;;;;;7.11;70.56;101648.94;1748477;82;21192;-75
2021/03/31 02:54:52;;;;;;;25.80;12.68;;;;;;;7.08;70.60;101649.66;1748355;82;21777;-75
2021/03/31 02:57:19;;;;;;;46.28;22.50;;;;;;;6.99;70.64;101649.89;1748181;82;21184;-75
2021/03/31 02:59:46;;;;;;;49.58;23.02;;;;;;;6.89;70.69;101643.13;1748343;82;21168;-75
2021/03/31 03:02:16;;;;;;;34.25;16.60;;;;;;;6.86;70.74;101636.70;1738982;80;21272;-75
2021/03/31 03:04:48;;;;;;;37.13;15.08;;;;;;;6.84;70.76;101636.45;1766606;80;21199;-75
2021/03/31 03:07:15;;;;;;;36.55;16.40;;;;;;;6.81;70.82;101634.05;1744715;81;21155;-75
2021/03/31 03:09:44;;;;;;;44.90;17.30;;;;;;;6.77;70.87;101636.55;1767384;81;21124;-75
2021/03/31 03:12:11;;;;;;;52.98;20.90;;;;;;;6.77;70.94;101632.58;1766002;81;21124;-75
2021/03/31 03:14:41;;;;;;;75.03;29.00;;;;;;;6.78;71.00;101631.16;1739462;81;22048;-75
2021/03/31 03:17:07;;;;;;;53.67;24.00;;;;;;;6.78;71.04;101627.17;1769757;81;21172;-75
2021/03/31 03:19:34;;;;;;;49.63;21.27;;;;;;;6.82;71.09;101623.81;1762939;81;21613;-75
2021/03/31 03:22:01;;;;;;;55.75;22.93;;;;;;;6.81;71.11;101623.44;1739552;81;21147;-75
2021/03/31 03:24:28;;;;;;;118.00;46.85;;;;;;;6.78;71.16;101621.88;1764138;81;21155;-75
2021/03/31 03:26:55;;;;;;;77.25;34.98;;;;;;;6.75;71.23;101614.62;1759534;81;21249;-75
2021/03/31 03:29:21;;;;;;;63.92;27.32;;;;;;;6.72;71.28;101617.52;1771230;80;21577;-75
2021/03/31 03:31:47;;;;;;;56.15;23.15;;;;;;;6.71;71.36;101622.44;1766516;80;22451;-75
2021/03/31 03:34:13;;;;;;;62.15;22.13;;;;;;;6.69;71.37;101621.22;1769367;80;21188;-75
2021/03/31 03:36:40;;;;;;;47.60;21.75;;;;;;;6.67;71.42;101617.00;1772932;80;21629;-75
2021/03/31 03:39:06;;;;;;;48.40;18.92;;;;;;;6.63;71.47;101626.14;1771933;80;21234;-75
2021/03/31 03:41:32;;;;;;;43.20;19.65;;;;;;;6.59;71.51;101626.00;1765813;80;21180;-75
2021/03/31 03:43:58;;;;;;;50.65;22.30;;;;;;;6.57;71.55;101623.95;1772551;80;21124;-75
2021/03/31 03:46:31;;;;;;;51.83;24.12;;;;;;;6.52;71.56;101621.16;1772686;80;21116;-75
2021/03/31 03:49:00;;;;;;;43.35;20.65;;;;;;;6.51;71.60;101624.77;1772824;80;21197;-75
2021/03/31 03:51:27;;;;;;;50.47;22.07;;;;;;;6.46;71.65;101624.27;1764602;80;21202;-75
2021/03/31 03:53:54;;;;;;;43.20;19.67;;;;;;;6.39;71.70;101623.03;1760795;80;21215;-75
2021/03/31 03:56:20;;;;;;;40.15;18.10;;;;;;;6.38;71.75;101616.52;1738183;82;21119;-75
2021/03/31 03:58:46;;;;;;;37.10;16.85;;;;;;;6.38;71.81;101620.02;1756662;80;21188;-75
2021/03/31 04:01:13;;;;;;;38.85;16.30;;;;;;;6.41;71.85;101623.75;1766739;81;21219;-75
2021/03/31 04:03:39;;;;;;;38.83;16.15;;;;;;;6.40;71.90;101616.75;1768328;81;21140;-75
2021/03/31 04:06:07;;;;;;;43.48;17.05;;;;;;;6.40;71.95;101611.96;1766857;80;21648;-75
2021/03/31 04:08:33;;;;;;;33.02;16.50;;;;;;;6.47;72.01;101617.99;1775638;80;22086;-75
2021/03/31 04:10:59;;;;;;;29.95;16.85;;;;;;;6.51;72.07;101615.48;1753954;80;21637;-74
2021/03/31 04:13:28;;;;;;;43.15;20.30;;;;;;;6.57;72.10;101612.03;1759845;80;21644;-75
2021/03/31 04:16:01;;;;;;;43.38;20.20;;;;;;;6.61;72.15;101613.49;1763660;80;22024;-75
2021/03/31 04:18:28;;;;;;;80.22;32.20;;;;;;;6.60;72.19;101613.97;1770467;80;21220;-75
2021/03/31 04:20:57;;;;;;;80.20;31.60;;;;;;;6.60;72.22;101606.50;1749374;80;21148;-75
2021/03/31 04:23:25;;;;;;;183.77;63.73;;;;;;;6.61;72.24;101606.87;1766276;80;21212;-75
2021/03/31 04:25:51;;;;;;;131.57;47.20;;;;;;;6.60;72.27;101605.17;1778402;80;21132;-75
2021/03/31 04:28:17;;;;;;;127.78;43.85;;;;;;;6.55;72.29;101602.85;1781095;80;22114;-75
2021/03/31 04:30:43;;;;;;;73.28;30.08;;;;;;;6.48;72.30;101602.94;1780910;80;21155;-75
2021/03/31 04:33:10;;;;;;;51.00;22.77;;;;;;;6.44;72.31;101607.63;1761614;80;21547;-75
2021/03/31 04:35:37;;;;;;;75.42;31.52;;;;;;;6.41;72.33;101612.30;1767270;80;21136;-75
2021/03/31 04:38:11;;;;;;;69.80;29.30;;;;;;;6.39;72.36;101611.11;1780531;80;21152;-75
2021/03/31 04:40:56;;;;;;;66.02;27.73;;;;;;;6.38;72.35;101609.41;1768361;80;21209;-75
2021/03/31 04:43:29;;;;;;;100.22;41.65;;;;;;;6.40;72.34;101601.37;1760038;80;21144;-75
2021/03/31 04:45:58;;;;;;;105.12;38.88;;;;;;;6.37;72.35;101601.09;1749327;80;22164;-74
2021/03/31 04:48:24;;;;;;;89.40;30.50;;;;;;;6.37;72.38;101601.09;1756761;80;21226;-75
2021/03/31 04:50:51;;;;;;;79.45;29.67;;;;;;;6.39;72.45;101599.19;1787602;80;21125;-75
2021/03/31 04:53:17;;;;;;;77.92;28.12;;;;;;;6.45;72.50;101606.67;1786425;80;22031;-75
2021/03/31 04:55:43;;;;;;;55.92;25.10;;;;;;;6.56;72.54;101605.03;1787202;80;21175;-75
2021/03/31 04:58:09;;;;;;;49.13;20.17;;;;;;;6.73;72.62;101607.25;1784580;80;21184;-75
2021/03/31 05:00:36;;;;;;;51.13;22.42;;;;;;;6.92;72.64;101604.91;1765699;80;21666;-75
2021/03/31 05:03:03;;;;;;;38.55;19.73;;;;;;;7.09;72.63;101609.77;1764782;80;21164;-75
2021/03/31 05:05:29;;;;;;;39.53;17.57;;;;;;;7.21;72.62;101612.81;1758765;80;21183;-75
2021/03/31 05:07:55;;;;;;;45.95;22.35;;;;;;;7.35;72.64;101610.42;1775533;80;21211;-75
2021/03/31 05:10:22;;;;;;;50.05;22.70;;;;;;;7.64;72.66;101608.10;1753043;80;21098;-75
2021/03/31 05:12:48;;;;;;;34.95;17.00;;;;;;;8.08;72.61;101614.70;1787233;80;21746;-75
2021/03/31 05:15:15;;;;;;;35.55;16.60;;;;;;;8.67;72.46;101611.16;1768609;80;21564;-75
2021/03/31 05:17:42;;;;;;;39.58;18.32;;;;;;;9.06;72.24;101605.63;1784489;80;21214;-75
2021/03/31 05:20:10;;;;;;;42.50;19.50;;;;;;;9.64;72.08;101605.92;1784091;80;21159;-75
2021/03/31 05:22:36;;;;;;;56.92;28.90;;;;;;;10.40;71.77;101610.13;1787401;80;21187;-76
2021/03/31 05:25:03;;;;;;;99.13;41.75;;;;;;;10.97;71.32;101605.77;1786815;80;21639;-76
2021/03/31 05:27:29;;;;;;;49.13;17.95;;;;;;;11.22;71.03;101610.50;1785917;80;21108;-76
2021/03/31 05:29:56;;;;;;;37.80;17.80;;;;;;;11.96;70.63;101606.51;1786657;80;21223;-76
2021/03/31 05:32:22;;;;;;;42.45;19.60;;;;;;;12.70;70.02;101599.56;1781729;80;21791;-76
2021/03/31 05:34:48;;;;;;;38.00;18.85;;;;;;;13.41;69.26;101599.77;1774075;80;21144;-76
2021/03/31 05:37:15;;;;;;;32.48;17.77;;;;;;;13.85;68.53;101599.65;1779408;80;21176;-76
2021/03/31 05:39:41;;;;;;;136.68;66.55;;;;;;;13.93;67.60;101596.48;1779186;80;21188;-76
2021/03/31 05:42:09;;;;;;;129.15;50.15;;;;;;;13.64;66.93;101596.54;1779393;80;21222;-76
2021/03/31 05:44:37;;;;;;;78.47;34.60;;;;;;;13.23;66.89;101597.64;1787366;80;21569;-76
2021/03/31 05:47:07;;;;;;;46.68;18.95;;;;;;;12.99;67.01;101597.44;1787313;80;21188;-76
2021/03/31 05:49:33;;;;;;;32.48;17.05;;;;;;;12.90;67.02;101604.59;1787907;80;21679;-76
2021/03/31 05:52:00;;;;;;;42.98;17.55;;;;;;;12.90;66.91;101598.39;1787391;80;21164;-77
2021/03/31 05:54:26;;;;;;;34.58;14.90;;;;;;;12.85;66.81;101603.36;1787392;80;21248;-77
2021/03/31 05:56:52;;;;;;;30.82;13.80;;;;;;;12.92;66.65;101603.92;1787312;80;21235;-77
2021/03/31 05:59:18;;;;;;;29.35;13.58;;;;;;;12.89;66.48;101596.70;1787340;80;21188;-77
2021/03/31 06:01:46;;;;;;;25.27;13.60;;;;;;;12.86;66.29;101600.53;1787505;80;21139;-77
2021/03/31 06:04:12;;;;;;;84.85;42.13;;;;;;;12.83;66.13;101594.65;1787677;80;21190;-76
2021/03/31 06:06:38;;;;;;;79.75;37.73;;;;;;;12.79;65.93;101598.63;1730799;80;21199;-76
2021/03/31 06:09:09;;;;;;;103.95;50.43;;;;;;;12.72;65.78;101594.89;1786914;80;21152;-77
2021/03/31 06:11:51;;;;;;;54.20;29.70;;;;;;;12.69;65.61;101593.37;1787275;80;21199;-77
2021/03/31 06:14:37;;;;;;;41.13;28.00;;;;;;;12.74;65.43;101594.22;1787174;80;21152;-77
2021/03/31 06:19:49;;;;;;;72.78;35.68;;;;;;;13.00;65.06;101591.09;1815369;77;22265;-77
2021/03/31 06:25:08;;;;;;;59.63;32.28;;;;;;;13.13;64.80;101591.55;1815306;77;23895;-78
2021/03/31 06:27:34;;;;;;;64.30;31.57;;;;;;;13.21;64.66;101594.29;1787934;80;21136;-76
2021/03/31 06:30:04;;;;;;;63.00;32.38;;;;;;;13.34;64.55;101585.32;1787305;80;22291;-76
2021/03/31 06:32:41;;;;;;;55.40;28.83;;;;;;;13.57;64.42;101590.14;1758194;80;21652;-76
2021/03/31 06:35:17;;;;;;;52.58;27.50;;;;;;;13.87;64.26;101582.88;1787731;80;21207;-76
2021/03/31 06:37:44;;;;;;;53.13;26.35;;;;;;;14.21;64.03;101590.38;1769009;80;21561;-76
2021/03/31 06:43:19;;;;;;;33.58;15.72;;;;;;;14.72;63.50;101584.41;1815708;77;22662;-77
2021/03/31 06:48:22;;;;;;;27.17;15.68;;;;;;;14.96;62.95;101576.34;1777365;80;21568;-77
2021/03/31 06:50:48;;;;;;;25.15;14.23;;;;;;;15.11;62.60;101578.69;1703910;81;21178;-77
2021/03/31 06:53:33;;;;;;;27.05;15.85;;;;;;;15.25;62.33;101579.83;1756703;81;21160;-77
2021/03/31 06:56:01;;;;;;;31.50;17.75;;;;;;;15.29;62.01;101558.32;1756726;81;21173;-77
2021/03/31 06:58:28;;;;;;;35.63;17.30;;;;;;;15.58;61.55;101577.93;1756739;81;21202;-78
2021/03/31 07:00:54;;;;;;;25.90;15.72;;;;;;;15.76;61.21;101573.16;1757547;80;21222;-78
2021/03/31 07:03:20;;;;;;;32.45;15.85;;;;;;;15.85;60.83;101582.85;1775074;80;21151;-78
2021/03/31 07:05:47;;;;;;;27.60;16.37;;;;;;;15.91;60.67;101578.95;1727047;81;21610;-78
2021/03/31 07:08:15;;;;;;;27.77;18.10;;;;;;;15.92;60.08;101560.95;1758915;79;21151;-78
2021/03/31 07:10:54;;;;;;;26.60;17.42;;;;;;;16.15;59.72;101579.31;1756715;81;21124;-77
2021/03/31 07:13:34;;;;;;;38.50;18.30;;;;;;;16.25;59.34;101577.77;1763997;80;21256;-78
2021/03/31 07:16:05;;;;;;;29.35;16.00;;;;;;;16.45;58.98;101574.92;1770368;80;21136;-78
2021/03/31 07:18:33;;;;;;;34.43;17.55;;;;;;;16.57;58.61;101572.70;1787838;80;21537;-78
2021/03/31 07:21:00;;;;;;;41.42;18.77;;;;;;;16.64;58.26;101566.92;1785672;80;21285;-78
2021/03/31 07:23:26;;;;;;;28.32;17.60;;;;;;;16.75;57.92;101565.11;1785567;80;21173;-78
2021/03/31 07:25:53;;;;;;;34.75;17.75;;;;;;;16.83;57.65;101565.05;1721541;83;21293;-78
2021/03/31 07:28:26;;;;;;;27.25;16.30;;;;;;;16.97;57.33;101569.13;1722880;83;21162;-77
2021/03/31 07:30:52;;;;;;;24.02;15.50;;;;;;;17.08;56.94;101567.84;1741543;81;21679;-77
2021/03/31 07:33:23;;;;;;;29.25;16.32;;;;;;;17.15;56.69;101558.52;1752864;81;21749;-78
2021/03/31 07:35:50;;;;;;;31.93;15.80;;;;;;;17.19;56.38;101556.63;1753290;81;21148;-77
2021/03/31 07:38:21;;;;;;;29.35;15.90;;;;;;;17.32;56.16;101555.97;1750774;81;22156;-77
2021/03/31 07:40:50;;;;;;;34.50;17.77;;;;;;;17.40;55.87;101549.14;1753131;81;21244;-78
2021/03/31 07:43:23;;;;;;;;;;;;;;;17.42;55.57;101552.47;1712005;83;21168;-78
2021/03/31 07:46:00;;;;;;;23.35;14.20;;;;;;;17.52;55.32;101558.95;1721176;83;20262;-78
2021/03/31 07:48:26;;;;;;;28.07;15.20;;;;;;;17.58;55.19;101553.67;1702510;83;21185;-79
2021/03/31 07:50:52;;;;;;;20.70;12.95;;;;;;;17.68;54.90;101548.83;1703024;83;21343;-78
2021/03/31 07:53:23;;;;;;;26.70;15.13;;;;;;;17.74;54.79;101548.58;1726409;83;21161;-78
2021/03/31 07:55:52;;;;;;;25.45;13.93;;;;;;;17.88;54.65;101550.41;1715226;82;22131;-78
2021/03/31 08:01:12;;;;;;;25.35;14.07;;;;;;;18.30;54.06;101543.72;1839527;77;22729;-78
2021/03/31 08:06:22;;;;;;;24.37;14.95;;;;;;;18.55;53.50;101546.06;1814498;77;22704;-78
2021/03/31 08:08:54;;;;;;;22.50;14.35;;;;;;;18.59;53.27;101541.95;1785469;80;21188;-78
2021/03/31 08:11:44;;;;;;;24.07;14.63;;;;;;;18.61;53.00;101548.85;1720980;83;21625;-78
2021/03/31 08:14:11;;;;;;;29.45;16.37;;;;;;;18.63;52.75;101544.08;1721173;83;21192;-78
2021/03/31 08:16:43;;;;;;;38.58;15.48;;;;;;;18.75;52.53;101536.28;1738470;82;21592;-78
2021/03/31 08:19:16;;;;;;;36.68;16.42;;;;;;;18.90;52.39;101540.55;1693408;83;21163;-79
2021/03/31 08:21:45;;;;;;;29.27;15.80;;;;;;;18.98;52.18;101542.28;1752532;81;21521;-78
2021/03/31 08:24:12;;;;;;;27.62;14.93;;;;;;;19.06;51.98;101544.00;1745056;82;22040;-79
2021/03/31 08:26:46;;;;;;;26.52;15.35;;;;;;;19.12;51.80;101533.22;1725828;83;21664;-78
2021/03/31 08:29:24;;;;;;;24.50;14.63;;;;;;;19.20;51.57;101531.73;1726478;83;21157;-78
2021/03/31 08:32:00;;;;;;;30.00;15.78;;;;;;;19.35;51.41;101538.37;1726263;81;21200;-78
2021/03/31 08:34:31;;;;;;;27.87;16.62;;;;;;;19.47;51.19;101530.53;1718075;83;21104;-79
2021/03/31 08:36:59;;;;;;;29.27;15.20;;;;;;;19.64;50.91;101527.81;1714281;82;21217;-78
2021/03/31 08:39:25;;;;;;;27.65;15.43;;;;;;;19.82;50.72;101518.62;1716412;82;21201;-78
2021/03/31 08:41:55;;;;;;;27.25;13.83;;;;;;;19.88;50.50;101523.21;1709970;83;21577;-78
2021/03/31 08:44:32;;;;;;;22.62;14.53;;;;;;;19.83;50.25;101517.59;1726470;82;27402;-78
2021/03/31 08:47:20;;;;;;;30.80;16.20;;;;;;;19.86;50.25;101515.31;1720892;83;21172;-78
2021/03/31 08:49:53;;;;;;;17.40;11.65;;;;;;;20.02;50.04;101515.44;1722351;83;22072;-78
2021/03/31 08:52:24;;;;;;;16.10;11.18;;;;;;;20.21;49.86;101509.25;1722208;82;21625;-78
2021/03/31 08:54:54;;;;;;;24.92;13.10;;;;;;;20.32;49.62;101511.91;1723852;83;21168;-78
2021/03/31 08:57:26;;;;;;;70.72;25.08;;;;;;;20.38;49.40;101513.27;1707664;83;21798;-78
2021/03/31 08:59:59;;;;;;;24.82;12.73;;;;;;;20.43;49.19;101509.42;1723342;83;21600;-78
2021/03/31 09:02:28;;;;;;;27.80;12.68;;;;;;;20.51;48.95;101506.20;1723853;83;21424;-78
2021/03/31 09:04:56;;;;;;;;;;;;;;;20.69;48.81;101507.77;1714360;83;21236;-78
2021/03/31 09:07:22;;;;;;;29.00;14.83;;;;;;;20.79;48.63;101504.11;1704505;83;20280;-78
2021/03/31 09:09:49;;;;;;;26.82;12.07;;;;;;;20.92;48.54;101502.73;1717427;83;21204;-78
2021/03/31 09:12:18;;;;;;;21.95;11.83;;;;;;;21.08;48.43;101503.63;1716216;82;21493;-78
2021/03/31 09:14:48;;;;;;;26.87;13.10;;;;;;;21.18;48.22;101490.48;1712839;82;21164;-78
2021/03/31 09:17:20;;;;;;;24.12;13.08;;;;;;;21.20;48.03;101497.91;1704864;82;21626;-78
2021/03/31 09:19:47;;;;;;;38.58;13.00;;;;;;;21.11;47.85;101492.38;1714976;83;21215;-79
2021/03/31 09:22:27;;;;;;;34.92;13.15;;;;;;;21.02;47.77;101494.99;1726228;82;21486;-78
2021/03/31 09:25:04;;;;;;;27.73;13.35;;;;;;;21.08;47.66;101488.71;1719665;83;21906;-78
2021/03/31 09:27:32;;;;;;;21.02;10.90;;;;;;;21.17;47.57;101487.48;1728111;82;21291;-78
2021/03/31 09:30:03;;;;;;;19.95;9.23;;;;;;;21.34;47.44;101482.42;1743189;82;21168;-79
2021/03/31 09:32:33;;;;;;;25.72;10.70;;;;;;;21.37;47.25;101478.75;1744764;82;21172;-79
2021/03/31 09:34:56;;;;;;;20.52;10.28;;;;;;;21.37;47.08;101474.68;1747353;82;21188;-79
2021/03/31 09:37:22;;;;;;;20.80;10.90;;;;;;;21.41;46.83;101480.52;1701622;83;21179;-79
2021/03/31 09:39:56;;;;;;;20.52;10.98;;;;;;;21.43;46.62;101480.31;1720750;82;21408;-79
2021/03/31 09:42:38;;;;;;;22.87;10.40;;;;;;;21.46;46.42;101477.16;1720573;82;21223;-79
2021/03/31 09:45:08;;;;;;;44.95;12.75;;;;;;;21.40;46.21;101476.96;1741865;82;21649;-79
2021/03/31 09:47:37;;;;;;;21.90;9.85;;;;;;;21.43;46.10;101467.03;1737935;82;21168;-79
2021/03/31 09:50:08;;;;;;;19.95;11.38;;;;;;;21.52;45.97;101464.08;1749544;82;21466;-79
2021/03/31 09:52:34;;;;;;;20.45;11.53;;;;;;;21.53;45.86;101464.40;1747750;82;22233;-79
2021/03/31 09:55:07;;;;;;;16.27;9.85;;;;;;;21.59;45.77;101455.38;1734648;81;21711;-79
2021/03/31 09:57:37;;;;;;;16.12;10.25;;;;;;;21.72;45.71;101458.86;1723404;82;21237;-79
2021/03/31 10:00:07;;;;;;;;;;;;;;;21.86;45.57;101454.18;1737694;82;21177;-79
2021/03/31 10:02:34;;;;;;;22.87;11.03;;;;;;;21.86;45.47;101451.46;1726293;82;20278;-79
2021/03/31 10:05:08;;;;;;;21.70;10.80;;;;;;;21.92;45.45;101446.54;1720502;82;21580;-79
2021/03/31 10:07:35;;;;;;;28.67;10.43;;;;;;;22.00;45.36;101446.28;1726531;82;21131;-79
2021/03/31 10:10:03;;;;;;;22.48;11.00;;;;;;;22.00;45.19;101441.38;1738471;82;21180;-79
2021/03/31 10:12:31;;;;;;;23.25;11.10;;;;;;;22.00;45.11;101444.09;1719937;82;21154;-80
2021/03/31 10:15:00;;;;;;;20.48;10.60;;;;;;;21.96;44.96;101437.42;1728390;82;21152;-80
2021/03/31 10:17:29;;;;;;;25.70;12.47;;;;;;;22.07;44.83;101440.28;1728881;82;21181;-80
2021/03/31 10:20:13;;;;;;;34.47;13.50;;;;;;;22.19;44.66;101432.27;1716397;82;21549;-80
2021/03/31 10:22:41;;;;;;;25.05;12.10;;;;;;;22.15;44.42;101428.31;1741028;81;21477;-80
2021/03/31 10:25:27;;;;;;;23.95;11.48;;;;;;;22.11;44.26;101427.92;1728432;82;21140;-80
2021/03/31 10:27:53;;;;;;;19.90;12.40;;;;;;;22.20;44.03;101418.98;1710079;82;21204;-80
2021/03/31 10:30:26;;;;;;;40.80;12.18;;;;;;;22.13;43.75;101417.66;1735489;82;21537;-80
2021/03/31 10:32:53;;;;;;;22.40;11.93;;;;;;;22.16;43.61;101417.23;1726488;81;21209;-80
2021/03/31 10:38:46;;;;;;;21.00;12.10;;;;;;;22.23;43.34;101408.51;1832240;77;22689;-79
2021/03/31 10:49:31;;;;;;;20.45;10.75;;;;;;;22.09;42.81;101404.23;1778949;80;21132;-79
2021/03/31 10:54:27;;;;;;;17.48;10.68;;;;;;;22.23;42.58;101388.65;1851260;77;23150;-79
2021/03/31 10:57:04;;;;;;;17.45;9.75;;;;;;;22.18;42.46;101392.55;1823722;78;21549;-79
2021/03/31 10:59:22;;;;;;;23.35;9.83;;;;;;;22.18;42.44;101385.23;1793395;77;21599;-79
2021/03/31 11:01:48;;;;;;;20.97;10.65;;;;;;;22.30;42.37;101387.54;1791033;80;21199;-79
2021/03/31 11:04:14;;;;;;;18.57;9.63;;;;;;;22.30;42.25;101386.18;1793331;78;21131;-79
2021/03/31 11:06:40;;;;;;;19.52;11.22;;;;;;;22.36;42.14;101383.92;1818821;78;21176;-79
2021/03/31 11:09:07;;;;;;;19.02;9.25;;;;;;;22.37;41.96;101384.76;1821163;78;21134;-79
2021/03/31 11:11:33;;;;;;;17.98;10.78;;;;;;;22.42;41.79;101375.39;1820529;78;22267;-79
2021/03/31 11:13:59;;;;;;;17.95;9.80;;;;;;;22.49;41.64;101369.88;1791639;78;21197;-79
2021/03/31 11:16:26;;;;;;;19.65;10.08;;;;;;;22.49;41.58;101370.72;1791533;78;21179;-79
2021/03/31 11:19:03;;;;;;;19.60;9.63;;;;;;;22.52;41.47;101365.38;1791794;78;21155;-79
2021/03/31 11:22:04;;;;;;;19.48;10.25;;;;;;;22.58;41.43;101365.83;1789465;79;21154;-80
2021/03/31 11:26:48;;;;;;;17.17;9.43;;;;;;;22.74;41.45;101355.22;1802911;78;21179;-79
2021/03/31 11:29:15;;;;;;;20.65;11.12;;;;;;;22.89;41.39;101354.31;1805678;78;21158;-79
2021/03/31 11:31:41;;;;;;;23.85;10.85;;;;;;;22.95;41.28;101353.92;1823579;78;21167;-79
2021/03/31 11:34:07;;;;;;;20.40;9.70;;;;;;;22.85;41.14;101348.19;1823263;78;21151;-80
2021/03/31 11:36:34;;;;;;;20.15;10.10;;;;;;;22.88;41.21;101347.73;1811692;77;21710;-79
2021/03/31 11:39:01;;;;;;;25.32;11.15;;;;;;;22.93;41.26;101337.01;1815387;77;21147;-79
2021/03/31 11:41:27;;;;;;;20.02;9.93;;;;;;;22.86;41.13;101339.81;1828043;77;21561;-80
2021/03/31 11:43:54;;;;;;;18.62;10.03;;;;;;;22.76;41.13;101341.41;1791167;80;21564;-79
2021/03/31 11:46:20;;;;;;;17.50;8.08;;;;;;;22.76;41.07;101329.16;1799959;78;21579;-79
2021/03/31 11:48:46;;;;;;;17.20;7.60;;;;;;;22.75;40.88;101328.85;1786490;78;22613;-80
2021/03/31 11:51:13;;;;;;;17.67;9.30;;;;;;;22.69;40.55;101330.60;1755524;81;21148;-80
2021/03/31 11:53:39;;;;;;;17.52;9.30;;;;;;;22.69;40.33;101315.64;1730044;81;21181;-79
2021/03/31 11:56:06;;;;;;;20.37;9.28;;;;;;;22.70;40.21;101323.25;1757829;81;21171;-80
2021/03/31 11:58:32;;;;;;;15.45;9.18;;;;;;;22.67;40.06;101318.27;1759744;81;21156;-80